createdAt,value
2024-02-29T00:00:24.819Z,28.45
2024-02-29T00:02:51.530Z,28.46
2024-02-29T00:05:18.780Z,28.59
2024-02-29T00:07:45.422Z,28.55
2024-02-29T00:10:12.178Z,28.57
2024-02-29T00:12:39.914Z,28.42
2024-02-29T00:15:07.010Z,28.51
2024-02-29T00:17:33.719Z,28.98
2024-02-29T00:20:04.193Z,28.86
2024-02-29T00:22:30.749Z,28.77
2024-02-29T00:24:57.350Z,28.95
2024-02-29T00:27:24.602Z,28.78
2024-02-29T00:29:51.250Z,28.75
2024-02-29T00:32:18.377Z,28.72
2024-02-29T00:34:44.935Z,28.99
2024-02-29T00:37:11.634Z,28.92
2024-02-29T00:39:38.277Z,29.00
2024-02-29T00:42:04.932Z,28.92
2024-02-29T00:44:34.531Z,29.08
2024-02-29T00:47:01.178Z,28.92
2024-02-29T00:49:31.964Z,28.95
2024-02-29T00:51:58.604Z,28.99
2024-02-29T00:54:26.126Z,29.10
2024-02-29T00:56:52.858Z,28.83
2024-02-29T00:59:20.444Z,29.08
2024-02-29T01:01:47.216Z,29.30
2024-02-29T01:04:13.927Z,29.11
2024-02-29T01:06:43.463Z,29.06
2024-02-29T01:09:10.424Z,28.97
2024-02-29T01:11:37.882Z,28.90
2024-02-29T01:14:05.134Z,28.96
2024-02-29T01:16:31.842Z,29.09
2024-02-29T01:18:59.117Z,29.13
2024-02-29T01:21:25.735Z,28.94
2024-02-29T01:23:52.322Z,29.05
2024-02-29T01:26:18.944Z,29.21
2024-02-29T01:28:45.634Z,29.11
2024-02-29T01:31:12.362Z,29.12
2024-02-29T01:33:39.014Z,28.91
2024-02-29T01:36:05.785Z,28.99
2024-02-29T01:38:32.369Z,29.14
2024-02-29T01:40:58.991Z,29.24
2024-02-29T01:43:25.620Z,28.91
2024-02-29T01:46:17.930Z,29.33
2024-02-29T01:48:44.587Z,29.30
2024-02-29T01:51:11.203Z,29.50
2024-02-29T01:53:37.896Z,29.26
2024-02-29T01:56:07.469Z,29.26
2024-02-29T01:58:34.877Z,29.46
2024-02-29T02:01:01.740Z,29.21
2024-02-29T02:03:28.490Z,29.32
2024-02-29T02:05:55.559Z,29.27
2024-02-29T02:08:24.712Z,29.36
2024-02-29T02:10:51.535Z,29.41
2024-02-29T02:13:18.167Z,29.34
2024-02-29T02:15:48.107Z,29.39
2024-02-29T02:18:14.751Z,29.38
2024-02-29T02:20:41.348Z,29.42
2024-02-29T02:23:07.938Z,29.56
2024-02-29T02:25:34.490Z,29.33
2024-02-29T02:28:01.188Z,29.51
2024-02-29T02:30:27.775Z,29.48
2024-02-29T02:32:54.497Z,29.44
2024-02-29T02:35:21.219Z,29.68
2024-02-29T02:37:49.651Z,29.65
2024-02-29T02:40:16.658Z,29.53
2024-02-29T02:42:43.443Z,29.52
2024-02-29T02:45:10.301Z,29.63
2024-02-29T02:47:36.898Z,29.42
2024-02-29T02:50:03.617Z,29.86
2024-02-29T02:52:30.225Z,29.50
2024-02-29T02:54:56.908Z,29.43
2024-02-29T02:57:23.561Z,29.91
2024-02-29T02:59:50.161Z,29.58
2024-02-29T03:02:16.750Z,29.59
2024-02-29T03:04:43.369Z,29.45
2024-02-29T03:07:15.878Z,29.47
2024-02-29T03:09:42.608Z,29.45
2024-02-29T03:12:09.216Z,29.57
2024-02-29T03:14:35.821Z,29.62
2024-02-29T03:17:02.408Z,29.58
2024-02-29T03:19:29.113Z,29.66
2024-02-29T03:21:55.759Z,29.56
2024-02-29T03:24:25.184Z,29.66
2024-02-29T03:26:51.726Z,29.69
2024-02-29T03:29:21.667Z,29.53
2024-02-29T03:31:49.845Z,29.69
2024-02-29T03:34:16.865Z,29.75
2024-02-29T03:36:43.569Z,29.69
2024-02-29T03:39:10.180Z,29.59
2024-02-29T03:41:36.799Z,29.71
2024-02-29T03:44:03.549Z,29.75
2024-02-29T03:46:30.132Z,29.85
2024-02-29T03:48:56.886Z,29.70
2024-02-29T03:51:26.105Z,29.75
2024-02-29T03:53:52.822Z,29.66
2024-02-29T03:56:19.736Z,29.54
2024-02-29T03:58:46.360Z,29.75
2024-02-29T04:01:13.145Z,29.73
2024-02-29T04:03:40.433Z,29.78
2024-02-29T04:06:07.883Z,29.70
2024-02-29T04:08:35.387Z,29.71
2024-02-29T04:11:02.067Z,29.67
2024-02-29T04:13:28.792Z,29.55
2024-02-29T04:15:55.380Z,29.73
2024-02-29T04:18:22.044Z,29.59
2024-02-29T04:20:48.666Z,30.03
2024-02-29T04:23:15.268Z,29.73
2024-02-29T04:25:42.034Z,29.83
2024-02-29T04:28:08.669Z,29.55
2024-02-29T04:30:35.356Z,29.83
2024-02-29T04:33:03.989Z,29.73
2024-02-29T04:35:30.682Z,29.72
2024-02-29T04:37:57.306Z,29.87
2024-02-29T04:40:24.107Z,29.84
2024-02-29T04:42:50.743Z,29.73
2024-02-29T04:45:17.364Z,29.84
2024-02-29T04:47:44.160Z,30.05
2024-02-29T04:50:10.880Z,29.84
2024-02-29T04:52:37.484Z,29.96
2024-02-29T04:55:04.355Z,29.80
2024-02-29T04:57:30.997Z,29.91
2024-02-29T04:59:58.052Z,29.87
2024-02-29T05:02:24.647Z,30.05
2024-02-29T05:04:51.226Z,30.03
2024-02-29T05:07:17.944Z,29.78
2024-02-29T05:09:45.418Z,29.93
2024-02-29T05:12:12.093Z,29.96
2024-02-29T05:14:38.741Z,29.94
2024-02-29T05:17:05.304Z,29.96
2024-02-29T05:19:32.232Z,29.83
2024-02-29T05:21:58.883Z,30.13
2024-02-29T05:24:25.647Z,30.04
2024-02-29T05:26:52.276Z,29.90
2024-02-29T05:29:18.964Z,29.83
2024-02-29T05:31:53.062Z,30.09
2024-02-29T05:34:21.566Z,29.97
2024-02-29T05:36:48.775Z,29.75
2024-02-29T05:39:15.538Z,30.20
2024-02-29T05:41:42.116Z,29.91
2024-02-29T05:44:11.526Z,29.85
2024-02-29T05:46:38.162Z,30.23
2024-02-29T05:49:04.881Z,30.33
2024-02-29T05:51:31.527Z,30.06
2024-02-29T05:53:58.183Z,29.88
2024-02-29T05:56:24.764Z,29.92
2024-02-29T05:58:51.337Z,29.83
2024-02-29T06:01:19.001Z,31.00
2024-02-29T06:03:45.692Z,30.68
2024-02-29T06:06:12.288Z,30.05
2024-02-29T06:08:39.321Z,29.71
2024-02-29T06:11:06.084Z,28.51
2024-02-29T06:13:33.588Z,27.30
2024-02-29T06:16:01.757Z,27.06
2024-02-29T06:18:28.395Z,27.44
2024-02-29T06:20:55.022Z,27.77
2024-02-29T06:23:21.642Z,28.06
2024-02-29T06:25:50.837Z,27.92
2024-02-29T06:28:19.586Z,28.12
2024-02-29T06:30:47.586Z,28.24
2024-02-29T06:33:14.291Z,28.25
2024-02-29T06:35:40.938Z,28.27
2024-02-29T06:38:07.755Z,28.37
2024-02-29T06:40:34.452Z,28.57
2024-02-29T06:43:01.141Z,28.68
2024-02-29T06:45:27.788Z,28.71
2024-02-29T06:47:54.401Z,28.77
2024-02-29T06:50:21.025Z,28.71
2024-02-29T06:52:53.005Z,28.82
2024-02-29T06:55:21.342Z,28.83
2024-02-29T06:57:51.150Z,28.79
2024-02-29T07:00:18.214Z,29.04
2024-02-29T07:02:44.844Z,28.90
2024-02-29T07:05:11.465Z,29.13
2024-02-29T07:07:38.130Z,28.96
2024-02-29T07:10:07.387Z,28.87
2024-02-29T07:12:34.035Z,29.13
2024-02-29T07:15:00.777Z,29.29
2024-02-29T07:17:27.440Z,29.10
2024-02-29T07:19:54.087Z,29.00
2024-02-29T07:22:21.162Z,29.02
2024-02-29T07:24:47.948Z,29.01
2024-02-29T07:27:17.131Z,29.12
2024-02-29T07:29:44.138Z,29.01
2024-02-29T07:32:11.059Z,29.08
2024-02-29T07:34:37.705Z,29.11
2024-02-29T07:37:04.312Z,29.12
2024-02-29T07:39:31.101Z,29.19
2024-02-29T07:41:57.729Z,29.15
2024-02-29T07:44:24.471Z,29.12
2024-02-29T07:46:51.123Z,29.29
2024-02-29T07:49:20.597Z,29.42
2024-02-29T07:51:47.673Z,29.29
2024-02-29T07:54:14.464Z,29.40
2024-02-29T07:56:42.058Z,29.53
2024-02-29T07:59:08.897Z,29.56
2024-02-29T08:01:36.525Z,29.54
2024-02-29T08:04:03.720Z,29.19
2024-02-29T08:06:30.472Z,29.37
2024-02-29T08:08:57.151Z,29.20
2024-02-29T08:11:24.692Z,29.52
2024-02-29T08:13:51.390Z,29.35
2024-02-29T08:16:18.204Z,29.55
2024-02-29T08:18:45.021Z,29.40
2024-02-29T08:21:11.659Z,29.57
2024-02-29T08:23:38.253Z,29.53
2024-02-29T08:26:09.410Z,29.49
2024-02-29T08:28:39.178Z,29.50
2024-02-29T08:31:08.741Z,29.56
2024-02-29T08:33:35.485Z,29.53
2024-02-29T08:36:03.923Z,29.59
2024-02-29T08:38:30.710Z,29.63
2024-02-29T08:41:00.384Z,29.66
2024-02-29T08:43:27.211Z,32.83
2024-02-29T08:45:53.946Z,29.80
2024-02-29T08:48:20.722Z,28.98
2024-02-29T08:50:47.391Z,29.64
2024-02-29T08:53:14.510Z,30.05
2024-02-29T08:55:41.300Z,30.22
2024-02-29T08:58:11.616Z,30.05
2024-02-29T09:00:38.385Z,29.59
2024-02-29T09:03:05.266Z,29.71
2024-02-29T09:05:31.985Z,29.51
2024-02-29T09:07:58.832Z,29.75
2024-02-29T09:10:25.764Z,29.63
2024-02-29T09:12:52.578Z,29.73
2024-02-29T09:15:19.301Z,29.61
2024-02-29T09:17:46.132Z,29.50
2024-02-29T09:20:12.799Z,29.62
2024-02-29T09:22:39.513Z,29.73
2024-02-29T09:25:07.986Z,29.72
2024-02-29T09:27:34.867Z,29.79
2024-02-29T09:30:01.747Z,29.84
2024-02-29T09:32:28.517Z,29.80
2024-02-29T09:34:55.136Z,29.80
2024-02-29T09:37:21.819Z,30.03
2024-02-29T09:39:48.614Z,29.78
2024-02-29T09:42:15.857Z,29.79
2024-02-29T09:44:43.881Z,29.74
2024-02-29T09:47:13.098Z,29.81
2024-02-29T09:49:39.721Z,29.69
2024-02-29T09:52:07.098Z,29.70
2024-02-29T09:54:34.504Z,29.70
2024-02-29T09:57:03.458Z,29.51
2024-02-29T09:59:30.213Z,29.67
2024-02-29T10:01:56.997Z,29.49
2024-02-29T10:04:23.741Z,29.75
2024-02-29T10:06:50.512Z,27.56
2024-02-29T10:09:17.193Z,25.63
2024-02-29T10:11:44.524Z,24.98
2024-02-29T10:14:26.297Z,24.65
2024-02-29T10:16:53.477Z,24.52
2024-02-29T10:19:21.321Z,24.65
2024-02-29T10:21:48.627Z,24.97
2024-02-29T10:24:15.351Z,25.32
2024-02-29T10:26:41.972Z,25.79
2024-02-29T10:29:11.816Z,25.82
2024-02-29T10:31:39.838Z,25.89
2024-02-29T10:34:11.962Z,25.95
2024-02-29T10:36:39.460Z,26.23
2024-02-29T10:39:06.246Z,26.34
2024-02-29T10:41:33.309Z,26.21
2024-02-29T10:44:03.874Z,26.11
2024-02-29T10:46:32.083Z,26.38
2024-02-29T10:49:22.479Z,26.28
2024-02-29T10:51:53.386Z,26.22
2024-02-29T10:54:41.118Z,26.34
2024-02-29T10:57:15.676Z,26.37
2024-02-29T10:59:53.320Z,26.50
2024-02-29T11:02:20.627Z,27.01
2024-02-29T11:04:47.350Z,26.71
2024-02-29T11:07:14.211Z,26.54
2024-02-29T11:09:40.837Z,26.71
2024-02-29T11:12:11.165Z,26.79
2024-02-29T11:14:38.169Z,26.83
2024-02-29T11:17:07.863Z,26.68
2024-02-29T11:19:43.098Z,26.81
2024-02-29T11:22:17.931Z,26.62
2024-02-29T11:24:44.763Z,26.55
2024-02-29T11:27:12.200Z,26.64
2024-02-29T11:29:39.010Z,26.67
2024-02-29T11:32:07.484Z,26.90
2024-02-29T11:34:35.071Z,26.81
2024-02-29T11:37:04.815Z,26.89
2024-02-29T11:39:31.838Z,26.88
2024-02-29T11:42:05.246Z,26.70
2024-02-29T11:44:32.471Z,26.24
2024-02-29T11:46:59.342Z,24.64
2024-02-29T11:49:27.377Z,23.98
2024-02-29T11:51:55.222Z,24.29
2024-02-29T11:54:23.412Z,24.26
2024-02-29T11:56:51.849Z,24.07
2024-02-29T11:59:18.691Z,24.43
2024-02-29T12:01:45.522Z,24.75
2024-02-29T12:04:12.445Z,24.80
2024-02-29T12:06:40.803Z,25.42
2024-02-29T12:09:11.636Z,25.02
2024-02-29T12:11:38.324Z,25.07
2024-02-29T12:14:08.151Z,25.06
2024-02-29T12:16:39.310Z,25.13
2024-02-29T12:19:09.369Z,25.23
2024-02-29T12:21:36.430Z,25.16
2024-02-29T12:24:06.549Z,25.21
2024-02-29T12:26:33.188Z,25.55
2024-02-29T12:29:00.674Z,25.46
2024-02-29T12:31:27.376Z,25.08
2024-02-29T12:33:57.038Z,25.39
2024-02-29T12:36:25.599Z,25.54
2024-02-29T12:38:55.328Z,25.17
2024-02-29T12:41:24.725Z,25.36
2024-02-29T12:43:51.411Z,25.22
2024-02-29T12:46:18.226Z,25.31
2024-02-29T12:48:45.861Z,25.13
2024-02-29T12:51:12.576Z,25.27
2024-02-29T12:53:39.314Z,25.46
2024-02-29T12:56:06.357Z,25.65
2024-02-29T12:58:33.832Z,25.35
2024-02-29T13:01:00.793Z,25.49
2024-02-29T13:03:28.417Z,25.50
2024-02-29T13:05:55.424Z,25.57
2024-02-29T13:08:23.078Z,25.90
2024-02-29T13:10:50.393Z,25.32
2024-02-29T13:13:17.726Z,25.65
2024-02-29T13:15:44.587Z,25.86
2024-02-29T13:18:11.425Z,25.75
2024-02-29T13:20:38.192Z,25.90
2024-02-29T13:23:05.069Z,25.99
2024-02-29T13:25:31.884Z,25.58
2024-02-29T13:27:59.020Z,25.52
2024-02-29T13:30:25.829Z,26.13
2024-02-29T13:32:52.613Z,26.09
2024-02-29T13:35:19.316Z,25.51
2024-02-29T13:37:47.729Z,25.47
2024-02-29T13:40:14.537Z,25.65
2024-02-29T13:42:45.039Z,25.32
2024-02-29T13:45:12.157Z,25.68
2024-02-29T13:47:50.077Z,24.92
2024-02-29T13:50:16.997Z,24.89
2024-02-29T13:52:44.367Z,24.45
2024-02-29T13:55:11.781Z,24.13
2024-02-29T13:57:38.794Z,24.53
2024-02-29T14:00:10.302Z,24.08
2024-02-29T14:02:42.948Z,23.69
2024-02-29T14:05:10.706Z,23.08
2024-02-29T14:07:37.565Z,22.34
2024-02-29T14:10:05.167Z,22.46
2024-02-29T14:12:34.513Z,22.71
2024-02-29T14:15:01.291Z,22.68
2024-02-29T14:17:28.350Z,22.41
2024-02-29T14:19:55.106Z,22.32
2024-02-29T14:22:24.882Z,22.17
2024-02-29T14:24:54.460Z,22.62
2024-02-29T14:27:22.034Z,22.34
2024-02-29T14:29:49.118Z,22.32
2024-02-29T14:32:15.939Z,22.19
2024-02-29T14:34:43.163Z,22.62
2024-02-29T14:37:10.287Z,22.59
2024-02-29T14:39:37.144Z,22.62
2024-02-29T14:42:07.278Z,22.86
2024-02-29T14:44:35.078Z,23.02
2024-02-29T14:55:45.564Z,22.80
2024-02-29T14:59:30.546Z,23.30
2024-02-29T15:02:09.036Z,23.18
2024-02-29T15:06:12.804Z,23.38
2024-02-29T15:23:00.949Z,23.36
2024-02-29T15:26:53.434Z,23.59
2024-02-29T15:30:05.426Z,23.76
2024-02-29T15:55:02.938Z,23.90
2024-02-29T15:58:34.269Z,23.90
2024-02-29T16:08:57.104Z,24.18
2024-02-29T16:11:51.302Z,24.29
2024-02-29T16:22:31.285Z,24.70
2024-02-29T16:25:46.884Z,24.71
2024-02-29T16:32:11.573Z,24.91
2024-02-29T16:42:33.396Z,25.58
2024-02-29T16:45:47.773Z,26.08
2024-02-29T16:52:39.474Z,27.85
2024-02-29T16:56:46.308Z,26.48
2024-02-29T16:59:53.315Z,25.99
2024-02-29T17:03:06.856Z,26.30
2024-02-29T17:16:31.888Z,26.28
2024-02-29T17:20:05.799Z,26.44
2024-02-29T17:23:20.003Z,25.21
2024-02-29T17:26:10.034Z,25.09
2024-02-29T17:33:44.464Z,25.32
2024-02-29T17:44:20.778Z,26.05
2024-02-29T17:47:26.325Z,26.66
2024-02-29T17:58:41.072Z,26.57
2024-02-29T18:15:20.467Z,26.40
2024-02-29T18:19:05.189Z,26.36
2024-02-29T18:22:25.724Z,26.45
2024-02-29T18:26:14.742Z,26.54
2024-02-29T18:29:49.780Z,26.74
2024-02-29T18:34:38.962Z,26.68
2024-02-29T18:36:20.315Z,26.75
2024-02-29T18:39:43.591Z,26.83
2024-02-29T18:49:40.690Z,26.75
2024-02-29T19:00:02.530Z,26.86
2024-02-29T19:03:25.974Z,27.11
2024-02-29T19:07:26.363Z,26.84
2024-02-29T19:16:53.075Z,26.91
2024-02-29T19:23:39.820Z,27.29
2024-02-29T19:30:41.970Z,27.36
2024-02-29T19:33:54.576Z,27.25
2024-02-29T19:37:17.384Z,27.12
2024-02-29T19:44:11.245Z,27.03
2024-02-29T19:47:06.022Z,27.41
2024-02-29T19:50:59.132Z,27.25
2024-02-29T19:57:20.664Z,27.27
2024-02-29T20:05:13.838Z,27.14
2024-02-29T20:08:39.897Z,27.40
2024-02-29T20:13:11.621Z,27.27
2024-02-29T20:30:02.824Z,27.29
2024-02-29T20:40:24.913Z,27.29
2024-02-29T20:43:57.087Z,27.42
2024-02-29T20:47:45.588Z,27.18
2024-02-29T21:00:56.842Z,27.26
2024-02-29T21:07:43.207Z,27.15
2024-02-29T21:11:23.722Z,27.35
2024-02-29T21:17:22.251Z,27.45
2024-02-29T21:20:54.714Z,27.22
2024-02-29T21:30:52.355Z,27.27
2024-02-29T21:38:46.776Z,27.47
2024-02-29T21:46:16.922Z,27.60
2024-02-29T21:49:17.663Z,27.29
2024-02-29T22:05:50.107Z,27.19
2024-02-29T22:19:35.668Z,27.34
2024-02-29T22:23:01.053Z,27.34
2024-02-29T22:37:09.458Z,27.38
2024-02-29T22:40:16.519Z,27.50
2024-02-29T22:44:10.632Z,27.64
2024-02-29T22:51:16.712Z,27.52
2024-02-29T22:54:33.701Z,27.60
2024-02-29T22:58:11.710Z,27.66
2024-02-29T23:04:44.503Z,24.38
2024-02-29T23:07:47.584Z,24.29
2024-02-29T23:14:33.192Z,24.74
2024-02-29T23:18:13.165Z,24.79
2024-02-29T23:33:53.904Z,25.20
2024-02-29T23:37:31.368Z,25.49
2024-02-29T23:58:52.694Z,26.19
